Time;durP1;ratioP1;P1;durP2;ratioP2;P2;SDS_P1;SDS_P2;PMS_P1;PMS_P2;Temp;Humidity;BMP_temperature;BMP_pressure;BME280_temperature;BME280_humidity;BME280_pressure;Samples;Min_cycle;Max_cycle;Signal;HPM_P1;HPM_P2
2022/01/07 00:01:24;;;;;;;7.03;3.60;;;;;;;19.31;44.17;101549.59;5037240;28;20113;-84
2022/01/07 00:03:52;;;;;;;5.50;3.97;;;;;;;19.32;44.08;101556.66;5037010;28;20421;-84
2022/01/07 00:06:19;;;;;;;5.55;3.85;;;;;;;19.33;44.31;101550.34;5036893;28;20049;-84
2022/01/07 00:08:47;;;;;;;4.18;3.65;;;;;;;19.34;44.17;101553.88;5031799;28;20516;-83
2022/01/07 00:11:14;;;;;;;4.25;3.83;;;;;;;19.35;43.95;101550.22;5033423;28;20057;-84
2022/01/07 00:13:42;;;;;;;4.60;3.63;;;;;;;19.37;43.97;101559.03;5035629;28;20080;-84
2022/01/07 00:16:11;;;;;;;5.13;3.95;;;;;;;19.39;44.07;101565.13;5035089;28;20116;-84
2022/01/07 00:18:41;;;;;;;4.63;3.55;;;;;;;19.40;43.86;101561.47;5036660;28;20065;-84
2022/01/07 00:21:09;;;;;;;4.68;3.88;;;;;;;19.40;43.84;101559.63;5036954;28;20037;-84
2022/01/07 00:23:37;;;;;;;5.05;3.65;;;;;;;19.41;43.76;101564.06;5016638;28;20050;-84
2022/01/07 00:26:04;;;;;;;4.57;3.72;;;;;;;19.42;43.54;101568.44;5016843;28;20481;-83
2022/01/07 00:28:32;;;;;;;6.03;3.75;;;;;;;19.42;43.56;101568.44;5016679;28;20068;-84
2022/01/07 00:30:59;;;;;;;4.88;3.95;;;;;;;19.44;43.61;101568.31;4999365;28;20054;-84
2022/01/07 00:33:26;;;;;;;4.88;3.25;;;;;;;19.43;43.58;101571.97;5016802;28;20046;-83
2022/01/07 00:35:56;;;;;;;4.75;3.78;;;;;;;19.44;43.35;101571.84;5016796;28;20051;-83
2022/01/07 00:38:23;;;;;;;5.00;3.65;;;;;;;19.45;43.53;101575.44;5016431;28;20397;-83
2022/01/07 00:40:51;;;;;;;5.15;4.13;;;;;;;19.46;43.45;101580.66;5015074;28;20395;-83
2022/01/07 00:43:18;;;;;;;5.47;3.90;;;;;;;19.47;43.34;101578.84;5017238;28;20050;-83
2022/01/07 00:45:46;;;;;;;4.00;3.55;;;;;;;19.47;43.44;101578.84;5016631;28;20052;-83
2022/01/07 00:48:13;;;;;;;4.88;4.25;;;;;;;19.47;43.13;101581.53;5016138;28;20397;-83
2022/01/07 00:50:41;;;;;;;7.40;3.75;;;;;;;19.48;43.34;101588.59;5016558;28;20045;-82
2022/01/07 00:53:08;;;;;;;12.27;3.85;;;;;;;19.48;43.31;101575.16;5016258;28;20069;-83
2022/01/07 00:55:36;;;;;;;4.47;3.50;;;;;;;19.49;43.14;101580.44;5015231;28;20053;-82
2022/01/07 00:58:04;;;;;;;4.75;3.65;;;;;;;19.50;43.25;101587.53;5016523;28;20046;-83
2022/01/07 01:00:31;;;;;;;4.18;3.33;;;;;;;19.49;43.27;101582.28;5016310;28;20489;-82
2022/01/07 01:02:59;;;;;;;4.90;3.00;;;;;;;19.50;43.13;101584.00;5014478;28;20050;-83
2022/01/07 01:05:28;;;;;;;4.57;3.55;;;;;;;19.50;43.22;101584.00;5016079;28;20050;-83
2022/01/07 01:07:55;;;;;;;5.38;3.10;;;;;;;19.51;43.11;101591.06;5015872;28;20378;-83
2022/01/07 01:10:27;;;;;;;5.53;3.50;;;;;;;19.51;43.09;101585.69;5017343;28;20413;-83
2022/01/07 01:12:55;;;;;;;4.22;3.60;;;;;;;19.50;43.42;101584.00;5035035;28;20049;-82
2022/01/07 01:15:25;;;;;;;4.75;3.60;;;;;;;19.51;43.27;101586.53;5035260;28;20524;-82
2022/01/07 01:17:55;;;;;;;4.07;3.35;;;;;;;19.50;43.37;101582.16;5035306;28;20041;-83
2022/01/07 01:20:23;;;;;;;4.13;3.42;;;;;;;19.51;43.22;101578.50;5035557;28;20045;-82
2022/01/07 01:22:51;;;;;;;4.20;3.45;;;;;;;19.51;43.18;101591.06;5035448;28;20049;-82
2022/01/07 01:25:18;;;;;;;4.88;3.13;;;;;;;19.52;43.31;101582.03;5035734;28;20052;-82
2022/01/07 01:27:46;;;;;;;4.00;2.97;;;;;;;19.52;43.24;101584.72;5035617;28;20401;-82
2022/01/07 01:30:17;;;;;;;5.45;3.78;;;;;;;19.52;43.26;101588.25;5035283;28;20049;-82
2022/01/07 01:32:49;;;;;;;4.03;3.33;;;;;;;19.54;43.39;101584.63;5035104;28;20488;-82
2022/01/07 01:35:17;;;;;;;3.95;3.45;;;;;;;19.54;43.22;101584.63;5035268;28;20049;-82
2022/01/07 01:37:46;;;;;;;3.78;3.20;;;;;;;19.55;43.28;101597.06;5034127;28;20052;-82
2022/01/07 01:40:14;;;;;;;4.63;3.45;;;;;;;19.55;43.22;101597.06;5035023;28;20053;-82
2022/01/07 01:42:42;;;;;;;7.35;3.38;;;;;;;19.55;43.36;101583.63;5035259;28;20060;-82
2022/01/07 01:45:11;;;;;;;3.55;2.70;;;;;;;19.54;43.35;101596.22;5035022;28;20477;-81
2022/01/07 01:47:38;;;;;;;4.32;3.45;;;;;;;19.55;43.04;101600.59;5035235;28;20484;-83
2022/01/07 01:50:07;;;;;;;4.22;3.15;;;;;;;19.54;43.41;101596.22;5035005;28;20037;-82
2022/01/07 01:52:35;;;;;;;4.35;3.13;;;;;;;19.55;43.13;101597.06;5035033;28;20049;-82
2022/01/07 01:55:05;;;;;;;4.00;2.95;;;;;;;19.55;43.04;101595.22;5035433;28;20057;-83
2022/01/07 01:57:32;;;;;;;3.95;3.15;;;;;;;19.54;43.07;101596.22;5034731;28;20046;-82
2022/01/07 02:00:00;;;;;;;4.60;3.95;;;;;;;19.55;43.13;101591.69;5035186;28;20056;-83
2022/01/07 02:02:27;;;;;;;4.18;3.30;;;;;;;19.54;43.08;101590.00;5034560;28;20053;-82
2022/01/07 02:04:56;;;;;;;4.53;3.05;;;;;;;19.54;43.00;101584.63;5035335;28;20377;-84
2022/01/07 02:07:26;;;;;;;4.20;3.28;;;;;;;19.54;42.92;101588.16;5035010;28;20050;-84
2022/01/07 02:09:54;;;;;;;3.63;2.92;;;;;;;19.54;42.80;101596.22;5033651;28;20052;-83
2022/01/07 02:12:22;;;;;;;3.88;3.20;;;;;;;19.54;42.98;101593.53;5020485;28;20076;-83
2022/01/07 02:14:51;;;;;;;3.53;2.90;;;;;;;19.54;42.85;101598.91;5032206;28;20421;-84
2022/01/07 02:17:20;;;;;;;4.10;2.97;;;;;;;19.55;43.12;101595.22;5033506;28;20041;-84
2022/01/07 02:19:48;;;;;;;4.35;3.10;;;;;;;19.55;42.79;101592.56;5034389;28;20050;-84
2022/01/07 02:22:19;;;;;;;4.80;3.00;;;;;;;19.55;42.98;101594.38;5033626;28;20056;-83
2022/01/07 02:24:48;;;;;;;3.60;2.83;;;;;;;19.56;42.98;101594.25;5014016;28;20041;-83
2022/01/07 02:27:16;;;;;;;3.72;3.10;;;;;;;19.55;43.07;101602.44;5014524;28;20049;-83
2022/01/07 02:29:46;;;;;;;4.00;3.22;;;;;;;19.56;43.17;101593.41;5014158;28;20045;-84
2022/01/07 02:32:13;;;;;;;4.07;2.65;;;;;;;19.55;42.99;101581.81;5014323;28;20068;-84
2022/01/07 02:34:41;;;;;;;4.65;3.45;;;;;;;19.55;43.00;101586.31;5014254;28;20050;-82
2022/01/07 02:37:08;;;;;;;4.50;3.33;;;;;;;19.55;42.96;101584.50;5014055;28;20053;-82
2022/01/07 02:39:36;;;;;;;4.13;3.13;;;;;;;19.56;42.86;101580.81;5014099;28;20057;-82
2022/01/07 02:42:04;;;;;;;3.40;2.85;;;;;;;19.55;42.95;101573.75;5014202;28;20049;-82
2022/01/07 02:44:32;;;;;;;4.10;3.00;;;;;;;19.55;43.06;101573.75;5014505;28;20057;-82
2022/01/07 02:47:00;;;;;;;3.35;2.88;;;;;;;19.55;42.96;101573.75;4996603;28;20053;-82
2022/01/07 02:49:27;;;;;;;4.65;2.78;;;;;;;19.56;42.71;101571.91;5013292;28;20046;-83
2022/01/07 02:51:55;;;;;;;3.53;2.70;;;;;;;19.56;42.93;101575.44;5014041;28;20053;-83
2022/01/07 02:54:22;;;;;;;3.63;2.80;;;;;;;19.56;43.07;101580.81;5014008;28;20046;-83
2022/01/07 02:56:50;;;;;;;3.58;2.85;;;;;;;19.57;43.06;101581.69;5012749;28;20505;-83
2022/01/07 02:59:18;;;;;;;4.68;3.47;;;;;;;19.56;42.75;101588.03;5014097;28;20485;-84
2022/01/07 03:01:46;;;;;;;3.88;3.10;;;;;;;19.56;42.83;101582.66;5012827;28;20501;-82
2022/01/07 03:04:14;;;;;;;3.17;2.40;;;;;;;19.55;42.86;101584.50;5013791;28;20046;-81
2022/01/07 03:06:42;;;;;;;4.32;2.58;;;;;;;19.55;43.05;101589.00;5013860;28;20054;-82
2022/01/07 03:09:09;;;;;;;3.75;2.88;;;;;;;19.54;42.89;101584.63;5014105;28;20057;-82
2022/01/07 03:11:37;;;;;;;3.88;2.90;;;;;;;19.53;43.07;101583.75;5016658;28;20052;-82
2022/01/07 03:14:04;;;;;;;3.28;2.70;;;;;;;19.54;42.87;101592.69;5030260;28;20049;-82
2022/01/07 03:16:32;;;;;;;3.80;2.90;;;;;;;19.53;43.07;101589.13;5033620;28;20045;-82
2022/01/07 03:19:00;;;;;;;3.67;2.47;;;;;;;19.52;42.93;101584.72;5033009;28;20052;-82
2022/01/07 03:21:27;;;;;;;3.97;3.00;;;;;;;19.52;42.57;101588.25;5034046;28;20469;-83
2022/01/07 03:23:55;;;;;;;3.45;2.50;;;;;;;19.52;42.83;101590.94;5033679;28;20363;-82
2022/01/07 03:26:22;;;;;;;3.58;2.63;;;;;;;19.51;42.85;101591.06;5031510;28;20049;-82
2022/01/07 03:28:50;;;;;;;3.60;2.60;;;;;;;19.52;42.85;101587.41;5033157;28;20509;-85
2022/01/07 03:31:17;;;;;;;4.15;2.83;;;;;;;19.52;42.83;101595.47;5033181;28;20042;-83
2022/01/07 03:33:45;;;;;;;3.25;2.50;;;;;;;19.51;42.82;101599.97;5032177;28;20053;-83
2022/01/07 03:36:12;;;;;;;4.72;2.85;;;;;;;19.51;42.98;101597.28;5033509;28;20045;-83
2022/01/07 03:38:39;;;;;;;3.10;2.80;;;;;;;19.51;43.03;101596.44;5033724;28;20045;-85
2022/01/07 03:41:07;;;;;;;2.92;2.28;;;;;;;19.49;42.78;101601.94;5033070;28;20045;-85
2022/01/07 03:43:34;;;;;;;4.45;2.80;;;;;;;19.50;42.78;101605.47;5031930;28;20109;-84
2022/01/07 03:46:02;;;;;;;3.38;2.30;;;;;;;19.50;42.91;101605.47;5032951;28;20045;-84
2022/01/07 03:48:29;;;;;;;5.15;2.70;;;;;;;19.49;42.69;101604.63;5033059;28;20366;-84
2022/01/07 03:50:57;;;;;;;3.53;2.55;;;;;;;19.49;42.79;101609.13;5033037;28;20401;-83
2022/01/07 03:53:25;;;;;;;3.55;2.65;;;;;;;19.48;42.75;101597.50;5031664;28;20056;-83
2022/01/07 03:55:52;;;;;;;3.85;2.63;;;;;;;19.48;42.72;101597.50;5033432;28;20057;-82
2022/01/07 03:58:21;;;;;;;3.78;2.80;;;;;;;19.47;42.69;101595.81;5033172;28;20046;-82
2022/01/07 04:00:48;;;;;;;4.95;2.85;;;;;;;19.46;42.60;101591.41;5033089;28;20044;-82
2022/01/07 04:03:17;;;;;;;3.53;2.60;;;;;;;19.45;43.06;101589.72;5033108;28;20045;-82
2022/01/07 04:05:45;;;;;;;2.58;2.08;;;;;;;19.44;43.04;101590.66;5031909;28;20045;-83
2022/01/07 04:08:14;;;;;;;4.25;2.72;;;;;;;19.45;42.74;101591.53;5031877;28;20058;-83
2022/01/07 04:10:41;;;;;;;3.85;2.60;;;;;;;19.45;42.49;101597.75;5032530;28;20079;-83
2022/01/07 04:13:09;;;;;;;3.70;2.65;;;;;;;19.47;42.28;101594.94;5029913;28;20052;-83
2022/01/07 04:15:36;;;;;;;3.53;2.55;;;;;;;19.47;42.41;101597.63;5031602;28;20061;-83
2022/01/07 04:18:04;;;;;;;4.47;2.55;;;;;;;19.48;42.39;101605.56;5032695;28;20056;-83
2022/01/07 04:20:34;;;;;;;2.95;2.30;;;;;;;19.49;42.35;101603.75;5031822;28;20049;-82
2022/01/07 04:23:03;;;;;;;2.90;2.50;;;;;;;19.50;42.31;101608.16;5031642;28;20049;-82
2022/01/07 04:25:31;;;;;;;3.67;2.60;;;;;;;19.49;42.31;101609.13;5013936;28;20046;-82
2022/01/07 04:28:02;;;;;;;2.97;2.30;;;;;;;19.50;42.46;101616.22;5012753;28;20049;-83
2022/01/07 04:30:42;;;;;;;2.80;2.35;;;;;;;19.49;42.38;101601.09;5011888;28;20046;-82
2022/01/07 04:33:13;;;;;;;3.30;2.50;;;;;;;19.49;42.17;101603.75;4995468;28;20053;-82
2022/01/07 04:35:42;;;;;;;3.45;2.38;;;;;;;19.49;42.20;101609.13;5013075;28;20057;-82
2022/01/07 04:38:10;;;;;;;3.30;2.38;;;;;;;19.49;41.97;101610.00;5015962;28;20049;-83
2022/01/07 04:40:37;;;;;;;3.22;2.50;;;;;;;19.49;42.29;101603.75;5016373;28;20414;-83
2022/01/07 04:43:06;;;;;;;2.67;2.22;;;;;;;19.49;42.38;101603.75;5016395;28;20048;-83
2022/01/07 04:45:35;;;;;;;3.40;2.30;;;;;;;19.48;42.27;101600.19;5016551;28;20508;-83
2022/01/07 04:48:03;;;;;;;3.50;2.33;;;;;;;19.48;42.60;101597.50;5016316;28;20045;-83
2022/01/07 04:50:31;;;;;;;3.00;2.03;;;;;;;19.48;42.20;101597.50;5016465;28;20050;-83
2022/01/07 04:52:59;;;;;;;2.95;2.30;;;;;;;19.47;42.17;101598.50;5016620;28;20474;-83
2022/01/07 04:55:29;;;;;;;4.20;2.50;;;;;;;19.46;42.17;101596.78;5016370;28;20057;-82
2022/01/07 04:57:56;;;;;;;3.10;2.10;;;;;;;19.47;42.20;101593.13;5016167;28;20057;-82
2022/01/07 05:00:24;;;;;;;4.03;2.60;;;;;;;19.47;42.23;101598.50;5014697;28;20046;-82
2022/01/07 05:02:52;;;;;;;3.72;2.45;;;;;;;19.48;42.20;101604.72;5016204;28;20046;-82
2022/01/07 05:05:19;;;;;;;3.05;2.15;;;;;;;19.47;42.28;101600.31;5016167;28;20489;-82
2022/01/07 05:07:47;;;;;;;2.90;2.30;;;;;;;19.46;42.25;101601.31;5015859;28;20054;-83
2022/01/07 05:10:14;;;;;;;3.17;2.17;;;;;;;19.46;42.33;101604.00;5015579;28;20053;-83
2022/01/07 05:12:43;;;;;;;2.83;2.33;;;;;;;19.45;42.25;101608.50;5015687;28;20054;-82
2022/01/07 05:15:12;;;;;;;3.35;2.15;;;;;;;19.45;42.19;101599.59;5020414;28;20053;-82
2022/01/07 05:17:40;;;;;;;2.90;2.40;;;;;;;19.45;42.12;101608.50;5034696;28;20053;-83
2022/01/07 05:20:08;;;;;;;3.42;2.78;;;;;;;19.46;42.17;101604.00;5034363;28;20052;-84
2022/01/07 05:22:35;;;;;;;3.45;2.40;;;;;;;19.46;42.18;101614.72;5035961;28;20045;-83
2022/01/07 05:25:05;;;;;;;3.58;2.33;;;;;;;19.45;42.23;101616.56;5035323;28;20049;-83
2022/01/07 05:27:32;;;;;;;2.88;2.10;;;;;;;19.44;42.34;101606.75;5034212;28;20049;-83
2022/01/07 05:30:00;;;;;;;3.53;2.38;;;;;;;19.44;42.32;101606.75;5035300;28;20069;-83
2022/01/07 05:32:27;;;;;;;3.40;2.10;;;;;;;19.43;42.43;101604.19;5034432;28;20049;-82
2022/01/07 05:34:55;;;;;;;3.20;2.60;;;;;;;19.44;42.42;101620.19;5035182;28;20478;-82
2022/01/07 05:37:22;;;;;;;4.05;2.40;;;;;;;19.42;42.23;101618.59;5035361;28;20401;-83
2022/01/07 05:39:49;;;;;;;4.28;2.30;;;;;;;19.41;42.55;101612.38;5035044;28;20041;-83
2022/01/07 05:42:17;;;;;;;3.45;2.45;;;;;;;19.40;42.67;101617.84;5017648;28;20049;-84
2022/01/07 05:44:44;;;;;;;3.88;2.25;;;;;;;19.38;42.61;101615.28;5035632;28;20056;-84
2022/01/07 05:47:11;;;;;;;3.75;2.13;;;;;;;19.37;42.58;101620.78;5035127;28;20041;-84
2022/01/07 05:49:39;;;;;;;3.65;2.28;;;;;;;19.37;42.61;101620.78;5034314;28;20060;-84
2022/01/07 05:52:07;;;;;;;3.47;2.67;;;;;;;19.36;42.46;101621.72;5035416;28;20056;-83
2022/01/07 05:54:35;;;;;;;3.20;2.42;;;;;;;19.34;42.52;101621.84;5035186;28;20045;-83
2022/01/07 05:57:03;;;;;;;2.92;1.98;;;;;;;19.34;42.64;101624.53;5033844;28;20405;-82
2022/01/07 05:59:33;;;;;;;3.05;2.08;;;;;;;19.34;42.59;101623.69;5035130;28;20049;-83
2022/01/07 06:02:02;;;;;;;4.93;2.10;;;;;;;19.33;42.53;101632.72;5033671;28;20046;-83
2022/01/07 06:04:29;;;;;;;3.05;2.33;;;;;;;19.31;42.62;101632.81;5034371;28;20045;-83
2022/01/07 06:06:57;;;;;;;3.85;2.33;;;;;;;19.31;42.68;101638.19;5033345;28;20052;-83
2022/01/07 06:09:24;;;;;;;2.67;2.08;;;;;;;19.30;42.47;101641.84;5035019;28;20049;-81
2022/01/07 06:11:51;;;;;;;2.97;2.20;;;;;;;19.33;42.28;101640.78;5034291;28;20041;-81
2022/01/07 06:14:19;;;;;;;3.88;2.58;;;;;;;19.33;42.14;101636.25;5033743;28;20060;-82
2022/01/07 06:16:46;;;;;;;2.92;2.05;;;;;;;19.35;42.00;101631.63;5026795;28;20041;-83
2022/01/07 06:19:14;;;;;;;3.05;2.17;;;;;;;19.36;41.97;101637.84;5033205;28;20050;-85
2022/01/07 06:21:41;;;;;;;4.10;2.00;;;;;;;19.35;42.11;101638.81;5033128;28;20417;-81
2022/01/07 06:24:08;;;;;;;3.03;2.40;;;;;;;19.32;42.15;101634.53;5027997;28;20054;-81
2022/01/07 06:26:36;;;;;;;3.25;2.30;;;;;;;19.32;42.33;101637.19;5014616;28;20367;-81
2022/01/07 06:29:04;;;;;;;3.75;2.47;;;;;;;19.31;42.01;101643.56;5014262;28;20508;-81
2022/01/07 06:31:31;;;;;;;4.53;2.38;;;;;;;19.30;42.21;101647.22;5014811;28;20050;-83
2022/01/07 06:33:59;;;;;;;2.80;2.15;;;;;;;19.28;42.28;101641.09;5014550;28;20386;-81
2022/01/07 06:36:30;;;;;;;2.95;2.30;;;;;;;19.27;42.50;101644.75;5014099;28;20416;-82
2022/01/07 06:38:58;;;;;;;2.88;2.08;;;;;;;19.27;42.47;101652.78;5014170;28;20371;-82
2022/01/07 06:41:26;;;;;;;4.10;2.67;;;;;;;19.27;42.26;101647.44;5012940;28;20405;-82
2022/01/07 06:43:53;;;;;;;2.78;2.15;;;;;;;19.26;42.32;101651.09;5013995;28;20054;-82
2022/01/07 06:46:20;;;;;;;3.42;2.10;;;;;;;19.26;42.28;101657.31;5014283;28;20050;-82
2022/01/07 06:48:48;;;;;;;2.67;2.25;;;;;;;19.26;42.27;101657.31;5013955;28;20050;-82
2022/01/07 06:51:15;;;;;;;3.47;2.10;;;;;;;19.25;42.13;101660.97;5014030;28;20042;-82
2022/01/07 06:53:43;;;;;;;2.78;2.30;;;;;;;19.26;42.14;101656.47;5013872;28;20053;-82
2022/01/07 06:56:10;;;;;;;2.70;2.20;;;;;;;19.25;42.15;101652.06;5014329;28;20390;-82
2022/01/07 06:58:37;;;;;;;2.78;2.35;;;;;;;19.24;42.28;101651.22;5013853;28;20072;-83
2022/01/07 07:01:07;;;;;;;3.15;2.38;;;;;;;19.24;42.26;101645.84;5013943;28;20046;-82
2022/01/07 07:03:35;;;;;;;4.90;2.47;;;;;;;19.24;42.08;101644.97;5013783;28;20406;-82
2022/01/07 07:06:02;;;;;;;3.03;1.90;;;;;;;19.25;41.99;101652.91;5013581;28;20486;-82
2022/01/07 07:08:30;;;;;;;2.90;2.13;;;;;;;19.23;42.04;101652.16;5012489;28;20049;-82
2022/01/07 07:10:57;;;;;;;2.90;2.10;;;;;;;19.23;42.13;101649.47;5013988;28;20042;-82
2022/01/07 07:13:25;;;;;;;2.92;2.20;;;;;;;19.23;42.19;101657.53;5012790;28;20045;-82
2022/01/07 07:15:52;;;;;;;3.08;2.30;;;;;;;19.23;41.94;101657.53;5017303;28;20053;-82
2022/01/07 07:18:20;;;;;;;3.25;2.05;;;;;;;19.22;41.89;101654.97;5027290;28;20057;-82
2022/01/07 07:20:47;;;;;;;3.25;2.30;;;;;;;19.22;41.91;101655.81;5033193;28;20056;-82
2022/01/07 07:23:14;;;;;;;3.58;2.28;;;;;;;19.21;41.88;101654.13;5033318;28;20072;-82
2022/01/07 07:25:42;;;;;;;2.95;2.30;;;;;;;19.21;41.96;101658.63;5033475;28;20046;-82
2022/01/07 07:28:09;;;;;;;3.42;2.28;;;;;;;19.21;41.91;101662.16;5033385;28;20053;-83
2022/01/07 07:30:40;;;;;;;3.13;2.17;;;;;;;19.20;41.90;101665.81;5032186;28;20052;-81
2022/01/07 07:33:56;;;;;;;2.67;1.90;;;;;;;19.21;41.78;101654.13;5033237;28;20045;-82
2022/01/07 07:38:45;;;;;;;3.00;2.38;;;;;;;19.20;41.87;101659.56;5033270;28;20076;-82
2022/01/07 07:41:12;;;;;;;3.80;2.47;;;;;;;19.20;41.78;101659.56;5033268;28;20047;-82
2022/01/07 07:43:41;;;;;;;3.90;2.38;;;;;;;19.18;41.63;101659.69;5032298;28;20056;-82
2022/01/07 07:46:08;;;;;;;2.83;2.05;;;;;;;19.19;41.77;101657.88;5016611;28;20064;-81
2022/01/07 07:48:36;;;;;;;4.22;2.45;;;;;;;19.18;42.00;101662.38;5033150;28;20049;-82
2022/01/07 07:51:03;;;;;;;3.03;2.17;;;;;;;19.17;41.82;101660.69;5033379;28;20052;-82
2022/01/07 07:53:31;;;;;;;3.00;2.50;;;;;;;19.17;41.81;101667.88;5033257;28;20060;-82
2022/01/07 07:55:58;;;;;;;3.15;2.50;;;;;;;19.16;41.77;101667.03;5033088;28;20045;-82
2022/01/07 07:58:27;;;;;;;4.15;2.63;;;;;;;19.18;41.60;101667.75;5033509;28;20512;-81
2022/01/07 08:00:54;;;;;;;3.38;2.40;;;;;;;19.18;41.52;101670.44;5032703;28;20116;-82
2022/01/07 08:03:23;;;;;;;3.70;2.40;;;;;;;19.19;41.69;101665.91;5032840;28;20049;-83
2022/01/07 08:05:51;;;;;;;3.75;2.42;;;;;;;19.19;41.57;101672.13;5033925;28;20060;-83
2022/01/07 08:08:18;;;;;;;2.75;2.38;;;;;;;19.19;41.46;101671.28;5033974;28;20386;-83
2022/01/07 08:10:49;;;;;;;5.18;2.90;;;;;;;19.19;41.52;101672.13;5033020;28;20050;-83
2022/01/07 08:15:59;;;;;;;3.25;2.20;;;;;;;19.20;41.66;101667.63;5036826;28;20061;-82
2022/01/07 08:18:35;;;;;;;4.22;2.70;;;;;;;19.21;41.41;101675.59;5018309;28;20041;-82
2022/01/07 08:21:09;;;;;;;3.40;2.40;;;;;;;19.21;41.61;101664.84;5017416;28;20462;-82
2022/01/07 08:23:39;;;;;;;3.80;3.00;;;;;;;19.21;41.49;101664.84;5015939;28;20050;-82
2022/01/07 08:26:09;;;;;;;3.00;2.20;;;;;;;19.21;41.39;101670.22;5017588;28;20073;-81
2022/01/07 08:28:42;;;;;;;3.83;2.88;;;;;;;19.21;41.42;101667.53;5017151;28;20054;-81
2022/01/07 08:36:27;;;;;;;3.60;2.95;;;;;;;19.22;41.35;101661.19;5016949;28;20050;-83
2022/01/07 08:38:56;;;;;;;3.80;2.40;;;;;;;19.19;41.73;101661.41;5015746;28;20494;-82
2022/01/07 08:41:27;;;;;;;4.75;2.65;;;;;;;19.18;41.69;101665.06;5016824;28;20397;-83
2022/01/07 08:43:55;;;;;;;6.38;2.85;;;;;;;19.18;41.63;101661.53;5015368;28;20042;-83
2022/01/07 08:46:23;;;;;;;3.92;3.00;;;;;;;19.18;41.64;101658.84;5016311;28;20053;-83
2022/01/07 08:48:50;;;;;;;4.00;3.20;;;;;;;19.17;41.61;101663.34;5016716;28;20075;-83
2022/01/07 08:51:18;;;;;;;4.78;2.80;;;;;;;19.17;41.46;101668.72;5015177;28;20046;-82
2022/01/07 08:53:50;;;;;;;4.93;2.58;;;;;;;19.17;41.83;101668.72;5017074;28;20098;-83
2022/01/07 08:56:18;;;;;;;6.13;3.38;;;;;;;19.14;43.11;101668.09;5015352;28;20056;-84
2022/01/07 08:58:46;;;;;;;5.80;2.60;;;;;;;19.12;42.92;101670.00;5016308;28;20086;-85
2022/01/07 09:01:13;;;;;;;6.82;2.80;;;;;;;19.07;42.49;101670.34;5015700;28;20042;-83
2022/01/07 09:03:41;;;;;;;4.05;3.00;;;;;;;19.05;42.58;101680.34;5015030;28;20381;-83
2022/01/07 09:06:08;;;;;;;5.80;3.13;;;;;;;19.05;42.72;101676.81;5015943;28;20061;-83
2022/01/07 09:08:36;;;;;;;3.70;2.78;;;;;;;19.02;42.64;101670.66;5015945;28;20065;-83
2022/01/07 09:11:03;;;;;;;3.65;2.85;;;;;;;19.01;42.61;101668.97;5015555;28;20378;-84
2022/01/07 09:13:30;;;;;;;4.85;2.85;;;;;;;19.02;42.54;101664.44;5014378;28;20073;-84
2022/01/07 09:15:58;;;;;;;4.57;3.30;;;;;;;19.02;42.53;101667.13;5015882;28;20058;-84
2022/01/07 09:18:26;;;;;;;4.18;3.40;;;;;;;19.02;42.20;101662.63;5020287;28;20041;-82
2022/01/07 09:20:54;;;;;;;4.88;3.13;;;;;;;19.02;42.29;101669.81;5022319;28;20049;-91
2022/01/07 09:23:22;;;;;;;3.67;3.08;;;;;;;19.02;42.37;101669.81;5014790;28;20047;-82
2022/01/07 09:25:49;;;;;;;4.28;2.85;;;;;;;19.01;42.15;101670.78;5013963;28;20053;-82
2022/01/07 09:28:18;;;;;;;5.68;3.58;;;;;;;18.99;42.11;101665.50;5015705;28;20367;-83
2022/01/07 09:30:48;;;;;;;5.32;4.03;;;;;;;18.98;41.89;101665.63;5015351;28;20053;-94
2022/01/07 09:33:15;;;;;;;5.88;3.50;;;;;;;18.98;41.80;101662.94;5015149;28;20049;-84
2022/01/07 09:35:44;;;;;;;6.32;3.50;;;;;;;18.97;41.65;101656.72;5013997;28;20053;-83
2022/01/07 09:38:11;;;;;;;7.07;6.18;;;;;;;18.84;34.49;101650.53;5015754;28;20049;-88
2022/01/07 09:40:39;;;;;;;7.00;6.30;;;;;;;18.58;33.78;101660.34;5014773;28;20487;-83
2022/01/07 09:43:08;;;;;;;8.40;7.05;;;;;;;18.31;33.81;101647.06;5016012;28;20053;-84
2022/01/07 09:45:38;;;;;;;7.85;6.20;;;;;;;18.13;34.30;101642.94;5015451;28;20057;-84
2022/01/07 09:48:08;;;;;;;7.00;6.30;;;;;;;17.88;32.72;101646.41;5015556;28;20509;-84
2022/01/07 09:50:37;;;;;;;9.10;6.60;;;;;;;17.74;33.75;101648.19;5015096;28;20046;-84
2022/01/07 09:53:07;;;;;;;8.07;7.05;;;;;;;17.59;33.25;101633.09;5013981;28;20046;-84
2022/01/07 09:55:35;;;;;;;7.88;7.07;;;;;;;17.44;34.09;101626.06;5015269;28;20413;-83
2022/01/07 09:58:02;;;;;;;6.05;5.13;;;;;;;17.62;37.60;101622.16;5013834;28;20508;-83
2022/01/07 10:00:39;;;;;;;5.65;4.85;;;;;;;17.78;38.70;101617.59;5014822;28;20073;-84
2022/01/07 10:03:14;;;;;;;8.38;4.93;;;;;;;17.91;38.89;101604.22;5015174;28;20069;-88
2022/01/07 10:05:49;;;;;;;6.88;4.70;;;;;;;18.02;37.92;101607.00;5014871;28;20597;-83
2022/01/07 10:08:22;;;;;;;7.45;4.68;;;;;;;18.13;38.35;101610.78;5015090;28;20049;-83
2022/01/07 10:11:11;;;;;;;6.78;5.03;;;;;;;18.10;32.73;101606.47;5015611;28;20715;-83
2022/01/07 10:13:39;;;;;;;8.63;6.35;;;;;;;17.91;32.47;101600.69;5015832;28;20049;-84
2022/01/07 10:16:15;;;;;;;7.43;6.40;;;;;;;17.90;33.45;101609.66;5014355;28;20062;-83
2022/01/07 10:18:52;;;;;;;5.65;4.88;;;;;;;17.95;36.51;101605.72;5015612;28;20042;-83
2022/01/07 10:21:21;;;;;;;6.13;4.60;;;;;;;18.03;37.81;101606.06;5025412;28;20046;-82
2022/01/07 10:23:49;;;;;;;5.38;4.57;;;;;;;18.12;37.73;101593.84;5013419;28;20058;-82
2022/01/07 10:26:22;;;;;;;7.50;4.72;;;;;;;18.18;38.21;101589.88;5015017;28;20054;-83
2022/01/07 10:28:51;;;;;;;5.22;4.60;;;;;;;18.24;38.12;101586.78;5015205;28;20065;-85
2022/01/07 10:31:21;;;;;;;5.03;4.03;;;;;;;18.29;37.91;101588.19;5014546;28;20050;-82
2022/01/07 10:33:53;;;;;;;5.38;4.25;;;;;;;18.34;38.36;101585.16;5014618;28;20046;-82
2022/01/07 10:36:24;;;;;;;7.13;4.15;;;;;;;18.39;38.39;101582.16;5012932;28;20429;-83
2022/01/07 10:39:06;;;;;;;6.47;3.90;;;;;;;18.42;38.76;101573.91;5012808;28;20057;-82
2022/01/07 10:41:33;;;;;;;9.38;5.00;;;;;;;18.44;38.97;101562.13;5015008;28;20049;-82
2022/01/07 10:44:03;;;;;;;5.47;3.95;;;;;;;18.46;38.79;101564.69;5013191;28;20054;-82
2022/01/07 10:46:31;;;;;;;5.32;3.63;;;;;;;18.48;39.02;101558.25;5014768;28;20045;-83
2022/01/07 10:49:04;;;;;;;5.53;3.90;;;;;;;18.50;38.93;101553.63;5014446;28;20054;-83
2022/01/07 10:51:38;;;;;;;7.57;3.78;;;;;;;18.51;39.15;101552.69;5014785;28;20049;-81
2022/01/07 10:54:10;;;;;;;5.25;3.75;;;;;;;18.52;38.94;101553.53;5013856;28;20056;-82
2022/01/07 10:56:41;;;;;;;5.30;4.13;;;;;;;18.53;39.08;101548.06;5014115;28;20482;-82
2022/01/07 10:59:13;;;;;;;4.47;3.58;;;;;;;18.55;39.22;101542.56;5013634;28;20409;-82
2022/01/07 11:01:48;;;;;;;5.18;3.92;;;;;;;18.56;38.98;101538.94;5014754;28;20057;-82
2022/01/07 11:04:17;;;;;;;4.68;3.80;;;;;;;18.57;39.18;101529.06;5014082;28;20500;-82
2022/01/07 11:06:46;;;;;;;4.22;3.35;;;;;;;18.58;39.09;101522.75;4996252;28;20054;-82
2022/01/07 11:09:16;;;;;;;7.15;3.60;;;;;;;18.58;39.27;101509.34;5014008;28;20041;-83
2022/01/07 11:11:52;;;;;;;5.18;3.20;;;;;;;18.59;39.16;101500.31;5013649;28;20049;-83
2022/01/07 11:14:31;;;;;;;4.65;3.40;;;;;;;18.60;39.26;101497.53;5013849;28;20050;-82
2022/01/07 11:17:04;;;;;;;5.55;3.55;;;;;;;18.60;39.03;101494.84;5014471;28;20042;-83
2022/01/07 11:19:38;;;;;;;4.32;3.42;;;;;;;18.59;39.04;101490.44;5015376;28;20383;-83
2022/01/07 11:22:11;;;;;;;5.60;3.55;;;;;;;18.60;39.11;101489.50;5028063;28;20053;-83
2022/01/07 11:24:40;;;;;;;5.20;3.03;;;;;;;18.61;39.04;101477.78;5033581;28;20500;-82
2022/01/07 11:27:14;;;;;;;4.80;3.03;;;;;;;18.62;39.22;101482.19;5033707;28;20045;-82
2022/01/07 11:30:06;;;;;;;5.43;3.60;;;;;;;18.62;38.90;101474.13;5020205;28;20049;-82
2022/01/07 11:32:46;;;;;;;5.05;3.72;;;;;;;18.63;39.10;101480.34;5011150;28;20126;-82
2022/01/07 11:35:20;;;;;;;4.18;3.20;;;;;;;18.63;39.16;101475.84;5013567;28;20057;-82
2022/01/07 11:37:53;;;;;;;5.00;3.10;;;;;;;18.63;39.03;101470.47;5012944;28;20057;-82
2022/01/07 11:40:47;;;;;;;4.10;3.28;;;;;;;18.64;39.23;101471.38;5013666;28;20045;-82
2022/01/07 11:43:18;;;;;;;5.88;3.10;;;;;;;18.63;39.28;101465.13;5011220;28;20077;-82